createdAt,value
2023-05-16T00:02:55.562Z,99412.06
2023-05-16T00:05:59.707Z,99410.53
2023-05-16T00:09:05.320Z,99413.09
2023-05-16T00:12:09.918Z,99408.13
2023-05-16T00:15:14.553Z,99408.66
2023-05-16T00:18:18.483Z,99414.00
2023-05-16T00:21:23.741Z,99401.50
2023-05-16T00:24:29.164Z,99405.44
2023-05-16T00:27:33.025Z,99400.44
2023-05-16T00:30:36.836Z,99399.44
2023-05-16T00:33:40.787Z,99403.16
2023-05-16T00:36:44.549Z,99406.41
2023-05-16T00:39:49.815Z,99409.56
2023-05-16T00:42:53.687Z,99403.88
2023-05-16T00:45:58.245Z,99399.84
2023-05-16T00:49:02.683Z,99390.72
2023-05-16T00:52:07.224Z,99387.16
2023-05-16T00:55:12.722Z,99385.09
2023-05-16T00:58:18.224Z,99384.19
2023-05-16T01:01:25.296Z,99381.56
2023-05-16T01:04:30.069Z,99382.38
2023-05-16T01:07:33.829Z,99379.38
2023-05-16T01:10:51.620Z,99374.47
2023-05-16T01:14:07.471Z,99379.91
2023-05-16T01:17:22.009Z,99381.75
2023-05-16T01:20:39.773Z,99378.19
2023-05-16T01:23:54.402Z,99377.34
2023-05-16T01:27:01.764Z,99372.22
2023-05-16T01:30:16.677Z,99371.09
2023-05-16T01:33:20.426Z,99366.84
2023-05-16T01:36:27.796Z,99365.84
2023-05-16T01:39:39.283Z,99362.22
2023-05-16T01:42:48.897Z,99361.28
2023-05-16T01:45:57.181Z,99359.03
2023-05-16T01:49:08.091Z,99354.22
2023-05-16T01:52:16.841Z,99350.22
2023-05-16T01:55:26.591Z,99348.69
2023-05-16T01:58:35.050Z,99339.28
2023-05-16T02:01:39.226Z,99331.25
2023-05-16T02:04:43.047Z,99325.81
2023-05-16T02:07:47.165Z,99316.13
2023-05-16T02:10:50.897Z,99317.13
2023-05-16T02:13:56.136Z,99324.38
2023-05-16T02:16:59.976Z,99322.66
2023-05-16T02:20:07.386Z,99324.66
2023-05-16T02:23:11.162Z,99330.88
2023-05-16T02:26:14.911Z,99324.09
2023-05-16T02:29:20.360Z,99322.38
2023-05-16T02:32:24.142Z,99316.94
2023-05-16T02:35:29.228Z,99315.97
2023-05-16T02:38:33.118Z,99315.97
2023-05-16T02:41:36.855Z,99311.41
2023-05-16T02:44:42.330Z,99304.63
2023-05-16T02:47:46.370Z,99305.44
2023-05-16T02:50:50.207Z,99292.47
2023-05-16T02:53:54.718Z,99289.75
2023-05-16T02:56:58.619Z,99297.28
2023-05-16T03:00:06.472Z,99308.69
2023-05-16T03:03:10.260Z,99317.94
2023-05-16T03:06:14.370Z,99323.34
2023-05-16T03:09:18.223Z,99323.88
2023-05-16T03:12:22.128Z,99326.13
2023-05-16T03:15:28.396Z,99325.75
2023-05-16T03:18:33.493Z,99335.09
2023-05-16T03:21:37.313Z,99342.06
2023-05-16T03:24:41.264Z,99325.75
2023-05-16T03:27:48.500Z,99332.91
2023-05-16T03:30:56.312Z,99340.81
2023-05-16T03:34:00.120Z,99335.91
2023-05-16T03:37:03.935Z,99312.97
2023-05-16T03:40:09.714Z,99326.75
2023-05-16T03:43:13.562Z,99337.88
2023-05-16T03:46:19.334Z,99350.94
2023-05-16T03:49:28.763Z,99346.88
2023-05-16T03:52:32.462Z,99345.22
2023-05-16T03:55:36.426Z,99340.78
2023-05-16T03:58:40.247Z,99334.63
2023-05-16T04:01:45.566Z,99341.94
2023-05-16T04:04:49.449Z,99336.38
2023-05-16T04:07:53.208Z,99330.78
2023-05-16T04:10:56.967Z,99321.34
2023-05-16T04:14:01.996Z,99325.84
2023-05-16T04:17:07.601Z,99316.47
2023-05-16T04:20:12.538Z,99319.56
2023-05-16T04:23:17.584Z,99318.72
2023-05-16T04:26:22.171Z,99310.94
2023-05-16T04:29:26.065Z,99322.50
2023-05-16T04:32:31.420Z,99316.31
2023-05-16T04:35:35.552Z,99322.59
2023-05-16T04:38:39.369Z,99326.50
2023-05-16T04:41:43.235Z,99329.94
2023-05-16T04:44:48.141Z,99335.56
2023-05-16T04:47:53.576Z,99334.03
2023-05-16T04:50:57.890Z,99343.31
2023-05-16T04:54:01.636Z,99332.88
2023-05-16T04:57:06.165Z,99336.91
2023-05-16T05:00:12.369Z,99346.50
2023-05-16T05:03:18.375Z,99332.88
2023-05-16T05:06:22.371Z,99339.78
2023-05-16T05:09:26.330Z,99346.50
2023-05-16T05:12:30.331Z,99344.28
2023-05-16T05:15:34.178Z,99340.75
2023-05-16T05:18:39.671Z,99349.47
2023-05-16T05:21:43.598Z,99345.50
2023-05-16T05:24:48.080Z,99338.66
2023-05-16T05:27:51.844Z,99328.31
2023-05-16T05:30:55.760Z,99329.31
2023-05-16T05:34:01.288Z,99352.31
2023-05-16T05:37:05.582Z,99341.78
2023-05-16T05:40:10.345Z,99339.03
2023-05-16T05:43:14.151Z,99329.63
2023-05-16T05:46:18.610Z,99314.44
2023-05-16T05:49:24.077Z,99313.44
2023-05-16T05:52:28.777Z,99305.53
2023-05-16T05:55:32.808Z,99315.00
2023-05-16T05:58:36.841Z,99335.13
2023-05-16T06:01:41.097Z,99328.59
2023-05-16T06:04:46.812Z,99319.22
2023-05-16T06:07:50.829Z,99312.75
2023-05-16T06:10:54.849Z,99308.66
2023-05-16T06:13:58.662Z,99318.69
2023-05-16T06:17:02.930Z,99326.63
2023-05-16T06:20:09.882Z,99310.03
2023-05-16T06:23:14.211Z,99337.59
2023-05-16T06:26:18.305Z,99361.50
2023-05-16T06:29:22.311Z,99307.63
2023-05-16T06:32:26.571Z,99314.69
2023-05-16T06:35:32.122Z,99330.25
2023-05-16T06:38:35.970Z,99335.41
2023-05-16T06:41:39.890Z,99311.19
2023-05-16T06:44:43.927Z,99298.06
2023-05-16T06:47:47.766Z,99303.88
2023-05-16T06:50:53.464Z,99311.72
2023-05-16T06:53:57.332Z,99307.88
2023-05-16T06:57:01.433Z,99303.03
2023-05-16T07:00:05.951Z,99301.91
2023-05-16T07:03:10.100Z,99302.66
2023-05-16T07:06:15.684Z,99315.44
2023-05-16T07:09:19.883Z,99307.88
2023-05-16T07:12:23.785Z,99298.28
2023-05-16T07:15:28.336Z,99293.94
2023-05-16T07:18:32.555Z,99292.53
2023-05-16T07:21:38.265Z,99288.56
2023-05-16T07:24:42.340Z,99281.50
2023-05-16T07:27:46.374Z,99289.50
2023-05-16T07:30:50.336Z,99273.97
2023-05-16T07:33:55.580Z,99268.72
2023-05-16T07:37:01.016Z,99281.81
2023-05-16T07:40:05.328Z,99283.16
2023-05-16T07:43:09.239Z,99284.38
2023-05-16T07:46:14.616Z,99266.53
2023-05-16T07:49:18.587Z,99279.31
2023-05-16T07:52:24.228Z,99282.78
2023-05-16T07:55:28.547Z,99278.09
2023-05-16T07:58:32.760Z,99268.53
2023-05-16T08:01:36.885Z,99250.25
2023-05-16T08:04:40.864Z,99253.72
2023-05-16T08:07:46.137Z,99249.66
2023-05-16T08:10:50.039Z,99253.31
2023-05-16T08:13:54.055Z,99255.72
2023-05-16T08:16:58.023Z,99251.44
2023-05-16T08:20:02.209Z,99259.00
2023-05-16T08:23:07.827Z,99260.81
2023-05-16T08:26:11.683Z,99255.94
2023-05-16T08:29:15.821Z,99245.16
2023-05-16T08:32:19.770Z,99254.13
2023-05-16T08:35:23.810Z,99253.91
2023-05-16T08:38:29.296Z,99261.22
2023-05-16T08:41:33.463Z,99248.63
2023-05-16T08:44:38.829Z,99222.94
2023-05-16T08:47:45.757Z,99239.41
2023-05-16T08:50:49.874Z,99224.91
2023-05-16T08:53:59.214Z,99221.03
2023-05-16T08:57:04.135Z,99219.38
2023-05-16T09:00:12.499Z,99220.31
2023-05-16T09:03:16.775Z,99229.25
2023-05-16T09:06:20.831Z,99224.47
2023-05-16T09:09:26.333Z,99221.22
2023-05-16T09:12:30.382Z,99225.97
2023-05-16T09:15:35.307Z,99221.28
2023-05-16T09:18:39.635Z,99215.00
2023-05-16T09:21:44.088Z,99217.31
2023-05-16T09:24:49.445Z,99215.47
2023-05-16T09:27:55.233Z,99205.56
2023-05-16T09:31:00.738Z,99224.06
2023-05-16T09:34:05.199Z,99206.72
2023-05-16T09:37:11.345Z,99194.47
2023-05-16T09:40:17.283Z,99197.19
2023-05-16T09:43:25.013Z,99186.31
2023-05-16T09:46:29.263Z,99190.59
2023-05-16T09:49:33.262Z,99200.19
2023-05-16T09:52:38.874Z,99171.13
2023-05-16T09:55:44.232Z,99152.50
2023-05-16T09:58:48.238Z,99172.78
2023-05-16T10:01:54.647Z,99175.84
2023-05-16T10:04:58.938Z,99179.16
2023-05-16T10:08:04.702Z,99194.88
2023-05-16T10:11:10.271Z,99198.91
2023-05-16T10:14:15.711Z,99204.88
2023-05-16T10:17:20.600Z,99203.06
2023-05-16T10:20:27.120Z,99179.66
2023-05-16T10:23:32.983Z,99162.19
2023-05-16T10:26:38.544Z,99157.22
2023-05-16T10:29:54.323Z,99153.44
2023-05-16T10:32:59.535Z,99152.41
2023-05-16T10:36:04.073Z,99161.22
2023-05-16T10:39:08.583Z,99151.59
2023-05-16T10:42:18.510Z,99131.06
2023-05-16T10:45:23.195Z,99129.59
2023-05-16T10:48:35.551Z,99131.56
2023-05-16T10:51:40.320Z,99120.28
2023-05-16T10:54:45.360Z,99111.28
2023-05-16T10:57:50.804Z,99111.84
2023-05-16T11:01:22.582Z,99128.31
2023-05-16T11:04:50.832Z,99118.88
2023-05-16T11:08:06.045Z,99105.91
2023-05-16T11:11:41.548Z,99096.91
2023-05-16T11:14:52.972Z,99109.75
2023-05-16T11:18:08.016Z,99103.16
2023-05-16T11:21:11.889Z,99109.41
2023-05-16T11:24:30.869Z,99107.94
2023-05-16T11:27:38.420Z,99104.63
2023-05-16T11:30:46.154Z,99096.94
2023-05-16T11:33:50.248Z,99097.16
2023-05-16T11:36:54.261Z,99115.41
2023-05-16T11:40:01.359Z,99116.47
2023-05-16T11:43:07.201Z,99099.31
2023-05-16T11:46:14.807Z,99099.47
2023-05-16T11:49:19.780Z,99112.06
2023-05-16T11:52:24.292Z,99112.13
2023-05-16T11:55:41.278Z,99097.22
2023-05-16T11:58:47.613Z,99096.81
2023-05-16T12:01:53.494Z,99090.09
2023-05-16T12:04:57.573Z,99085.00
2023-05-16T12:08:01.669Z,99077.59
2023-05-16T12:11:05.695Z,99073.22
2023-05-16T12:14:11.530Z,99089.75
2023-05-16T12:17:17.064Z,99107.25
2023-05-16T12:20:21.315Z,99110.97
2023-05-16T12:23:29.573Z,99101.09
2023-05-16T12:26:34.592Z,99099.34
2023-05-16T12:29:38.620Z,99097.53
2023-05-16T12:32:44.258Z,99100.00
2023-05-16T12:35:48.666Z,99098.41
2023-05-16T12:38:53.327Z,99092.59
2023-05-16T12:41:57.307Z,99083.00
2023-05-16T12:45:01.216Z,99068.59
2023-05-16T12:48:14.594Z,99056.31
2023-05-16T12:51:21.285Z,99042.28
2023-05-16T12:54:25.828Z,99042.31
2023-05-16T12:57:31.852Z,99042.97
2023-05-16T13:00:38.226Z,99024.41
2023-05-16T13:03:43.738Z,99009.84
2023-05-16T13:09:55.201Z,99025.91
2023-05-16T13:13:00.492Z,99025.31
2023-05-16T13:16:04.638Z,99019.25
2023-05-16T13:19:10.187Z,99022.44
2023-05-16T13:22:14.125Z,99022.63
2023-05-16T13:25:18.250Z,99019.59
2023-05-16T13:28:22.269Z,99006.09
2023-05-16T13:31:26.392Z,99001.16
2023-05-16T13:34:32.534Z,99012.66
2023-05-16T13:37:37.040Z,99006.09
2023-05-16T13:40:43.122Z,98989.19
2023-05-16T13:43:47.035Z,98991.09
2023-05-16T13:46:51.070Z,99000.38
2023-05-16T13:49:56.530Z,99002.06
2023-05-16T13:53:00.530Z,99001.91
2023-05-16T13:56:04.661Z,98990.25
2023-05-16T13:59:10.154Z,98980.91
2023-05-16T14:02:15.678Z,98992.38
2023-05-16T14:05:21.139Z,98984.94
2023-05-16T14:08:25.179Z,98986.44
2023-05-16T14:11:29.671Z,98993.38
2023-05-16T14:14:33.792Z,98986.91
2023-05-16T14:17:37.829Z,98992.56
2023-05-16T14:20:43.251Z,98991.84
2023-05-16T14:23:47.706Z,99000.72
2023-05-16T14:26:58.208Z,99006.66
2023-05-16T14:30:02.395Z,99001.97
2023-05-16T14:33:06.540Z,98998.28
2023-05-16T14:36:12.055Z,98996.94
2023-05-16T14:39:16.522Z,98997.97
2023-05-16T14:42:20.394Z,99009.66
2023-05-16T14:45:24.467Z,99029.78
2023-05-16T14:48:28.482Z,99011.97
2023-05-16T14:51:33.876Z,99036.19
2023-05-16T14:54:38.422Z,99020.44
2023-05-16T14:57:44.718Z,99036.06
2023-05-16T15:00:49.361Z,99026.84
2023-05-16T15:03:55.900Z,99051.28
2023-05-16T15:07:01.693Z,99035.88
2023-05-16T15:10:07.204Z,99030.44
2023-05-16T15:13:11.214Z,99033.38
2023-05-16T15:16:15.195Z,99016.38
2023-05-16T15:19:19.288Z,99005.91
2023-05-16T15:22:24.800Z,99006.06
2023-05-16T15:25:29.932Z,98999.94
2023-05-16T15:28:34.161Z,99003.75
2023-05-16T15:31:38.165Z,99029.44
2023-05-16T15:34:42.064Z,99057.88
2023-05-16T15:37:47.630Z,99079.81
2023-05-16T15:41:05.007Z,99021.84
2023-05-16T15:44:16.571Z,98997.31
2023-05-16T15:47:20.433Z,99025.41
2023-05-16T15:50:24.556Z,99007.28
2023-05-16T15:53:30.182Z,98998.78
2023-05-16T15:56:34.296Z,99000.84
2023-05-16T15:59:38.345Z,99004.34
2023-05-16T16:02:43.870Z,99002.44
2023-05-16T16:05:48.400Z,99009.34
2023-05-16T16:08:54.072Z,99009.03
2023-05-16T16:11:58.010Z,99005.53
2023-05-16T16:15:02.617Z,99003.31
2023-05-16T16:18:07.204Z,99004.69
2023-05-16T16:21:11.646Z,99015.44
2023-05-16T16:24:17.044Z,99011.00
2023-05-16T16:27:21.021Z,99015.25
2023-05-16T16:30:24.962Z,99019.28
2023-05-16T16:33:28.970Z,99015.44
2023-05-16T16:36:33.241Z,99011.84
2023-05-16T16:39:38.782Z,99017.03
2023-05-16T16:42:42.814Z,99013.03
2023-05-16T16:45:46.741Z,99004.50
2023-05-16T16:48:52.628Z,99009.22
2023-05-16T16:51:56.975Z,99006.56
2023-05-16T16:55:02.668Z,98993.97
2023-05-16T16:58:06.990Z,98993.97
2023-05-16T17:01:12.872Z,99005.75
2023-05-16T17:04:16.956Z,99013.69
2023-05-16T17:07:20.948Z,99008.78
2023-05-16T17:10:26.489Z,99002.13
2023-05-16T17:13:33.977Z,98999.66
2023-05-16T17:16:38.370Z,99024.50
2023-05-16T17:19:42.324Z,99030.75
2023-05-16T17:22:48.587Z,99024.56
2023-05-16T17:25:54.033Z,99034.81
2023-05-16T17:28:59.006Z,99043.66
2023-05-16T17:32:02.963Z,99037.16
2023-05-16T17:35:07.743Z,99040.41
2023-05-16T17:38:11.789Z,99049.97
2023-05-16T17:41:17.509Z,99049.44
2023-05-16T17:44:21.634Z,99053.03
2023-05-16T17:47:25.965Z,99058.16
2023-05-16T17:50:31.621Z,99055.06
2023-05-16T17:53:36.777Z,99060.00
2023-05-16T17:56:43.086Z,99068.50
2023-05-16T17:59:47.122Z,99075.00
2023-05-16T18:02:52.526Z,99080.28
2023-05-16T18:05:56.890Z,99088.41
2023-05-16T18:09:01.181Z,99093.16
2023-05-16T18:12:07.372Z,99099.88
2023-05-16T18:15:12.302Z,99099.06
2023-05-16T18:18:16.372Z,99093.16
2023-05-16T18:21:20.387Z,99087.63
2023-05-16T18:24:24.487Z,99096.19
2023-05-16T18:27:29.889Z,99098.03
2023-05-16T18:30:35.734Z,99106.38
2023-05-16T18:33:41.643Z,99106.31
2023-05-16T18:36:45.643Z,99102.91
2023-05-16T18:39:50.101Z,99098.44
2023-05-16T18:42:56.616Z,99099.44
2023-05-16T18:46:01.890Z,99088.47
2023-05-16T18:49:05.926Z,99087.22
2023-05-16T18:52:10.730Z,99066.66
2023-05-16T18:55:14.819Z,99045.31
2023-05-16T18:58:20.651Z,99055.88
2023-05-16T19:01:24.846Z,99041.41
2023-05-16T19:04:28.995Z,99046.13
2023-05-16T19:07:33.134Z,99055.00
2023-05-16T19:10:38.787Z,99038.75
2023-05-16T19:13:44.313Z,99029.59
2023-05-16T19:16:48.389Z,99030.59
2023-05-16T19:19:52.475Z,99038.53
2023-05-16T19:22:56.627Z,99040.31
2023-05-16T19:26:01.431Z,99050.53
2023-05-16T19:29:07.053Z,99047.47
2023-05-16T19:32:11.140Z,99038.34
2023-05-16T19:35:15.182Z,99046.69
2023-05-16T19:38:20.255Z,99036.34
2023-05-16T19:41:24.986Z,99036.38
2023-05-16T19:44:30.485Z,99035.97
2023-05-16T19:47:34.734Z,99044.75
2023-05-16T19:50:38.937Z,99048.84
2023-05-16T19:53:43.271Z,99057.56
2023-05-16T19:56:47.438Z,99051.66
2023-05-16T19:59:53.140Z,99053.09
2023-05-16T20:02:57.357Z,99056.34
2023-05-16T20:06:01.451Z,99043.13
2023-05-16T20:09:06.442Z,99056.16
2023-05-16T20:12:11.128Z,99052.69
2023-05-16T20:15:16.738Z,99040.88
2023-05-16T20:18:20.799Z,99042.91
2023-05-16T20:21:24.796Z,99033.16
2023-05-16T20:24:28.966Z,99037.41
2023-05-16T20:27:33.017Z,99046.59
2023-05-16T20:30:38.582Z,99040.28
2023-05-16T20:33:42.716Z,99040.50
2023-05-16T20:36:46.791Z,99050.50
2023-05-16T20:39:50.847Z,99072.00
2023-05-16T20:42:55.226Z,99088.91
2023-05-16T20:46:00.689Z,99075.25
2023-05-16T20:49:04.804Z,99076.28
2023-05-16T20:52:09.004Z,99069.13
2023-05-16T20:55:13.049Z,99060.78
2023-05-16T20:58:17.130Z,99079.28
2023-05-16T21:01:22.776Z,99080.53
2023-05-16T21:04:26.881Z,99080.56
2023-05-16T21:07:31.054Z,99091.94
2023-05-16T21:10:35.119Z,99100.69
2023-05-16T21:13:39.168Z,99105.34
2023-05-16T21:16:44.726Z,99104.34
2023-05-16T21:19:48.831Z,99091.13
2023-05-16T21:22:52.966Z,99082.81
2023-05-16T21:25:56.871Z,99084.84
2023-05-16T21:29:00.864Z,99088.25
2023-05-16T21:32:06.819Z,99072.63
2023-05-16T21:35:11.289Z,99064.31
2023-05-16T21:38:15.339Z,99080.75
2023-05-16T21:41:19.553Z,99062.25
2023-05-16T21:44:23.689Z,99061.69
2023-05-16T21:47:29.254Z,99056.78
2023-05-16T21:50:33.923Z,99056.81
2023-05-16T21:53:38.689Z,99071.41
2023-05-16T21:56:42.740Z,99069.78
2023-05-16T21:59:46.533Z,99051.06
2023-05-16T22:02:52.020Z,99044.97
2023-05-16T22:05:56.054Z,99045.56
2023-05-16T22:09:00.753Z,99040.28
2023-05-16T22:12:04.873Z,99028.97
2023-05-16T22:15:09.900Z,99016.13
2023-05-16T22:18:15.490Z,99028.53
2023-05-16T22:21:20.488Z,99003.56
2023-05-16T22:24:24.549Z,98987.53
2023-05-16T22:27:28.670Z,98986.91
2023-05-16T22:30:32.700Z,99000.50
2023-05-16T22:33:38.347Z,99012.66
2023-05-16T22:36:42.956Z,99005.16
2023-05-16T22:39:47.042Z,99005.09
2023-05-16T22:42:51.099Z,99005.06
2023-05-16T22:45:55.241Z,99000.19
2023-05-16T22:49:00.764Z,98983.53
2023-05-16T22:52:04.981Z,98974.56
2023-05-16T22:55:09.760Z,98977.75
2023-05-16T22:58:13.560Z,98994.97
2023-05-16T23:01:17.571Z,98998.59
2023-05-16T23:04:23.291Z,98983.41
2023-05-16T23:07:29.305Z,98986.22
2023-05-16T23:10:33.621Z,99000.28
2023-05-16T23:13:37.674Z,99006.13
2023-05-16T23:16:41.762Z,99011.38
2023-05-16T23:19:47.189Z,99010.78
2023-05-16T23:22:51.250Z,99020.75
2023-05-16T23:25:55.315Z,99016.38
2023-05-16T23:28:59.362Z,99014.69
2023-05-16T23:32:03.360Z,99010.59
2023-05-16T23:35:09.925Z,99018.00
2023-05-16T23:38:13.955Z,99022.59
2023-05-16T23:41:18.037Z,99040.69
2023-05-16T23:44:22.254Z,99045.38
2023-05-16T23:47:26.839Z,99052.84
2023-05-16T23:50:32.521Z,99053.56
2023-05-16T23:53:36.689Z,99053.88
2023-05-16T23:56:40.756Z,99053.66
2023-05-16T23:59:44.818Z,99046.19
